sensor_id;sensor_type;location;lat;lon;timestamp;pressure;altitude;pressure_sealevel;temperature;humidity
58973;BME280;44750;52.040;7.472;2023-05-07T00:03:17;101076.66;;;14.86;0.00
58973;BME280;44750;52.040;7.472;2023-05-07T00:08:18;101109.53;;;14.93;0.00
58973;BME280;44750;52.040;7.472;2023-05-07T00:13:18;101131.84;;;14.97;0.00
58973;BME280;44750;52.040;7.472;2023-05-07T00:18:18;101147.50;;;15.03;0.00
58973;BME280;44750;52.040;7.472;2023-05-07T00:23:19;101169.97;;;15.13;0.00
58973;BME280;44750;52.040;7.472;2023-05-07T00:28:19;101180.69;;;15.23;0.00
58973;BME280;44750;52.040;7.472;2023-05-07T00:33:19;101194.19;;;15.33;0.00
58973;BME280;44750;52.040;7.472;2023-05-07T00:38:20;101180.69;;;15.31;0.00
58973;BME280;44750;52.040;7.472;2023-05-07T00:43:20;101163.84;;;15.19;0.00
58973;BME280;44750;52.040;7.472;2023-05-07T00:48:20;101166.41;;;15.04;0.00
58973;BME280;44750;52.040;7.472;2023-05-07T00:53:21;101170.16;;;15.03;0.00
58973;BME280;44750;52.040;7.472;2023-05-07T00:58:21;101170.00;;;14.97;0.00
58973;BME280;44750;52.040;7.472;2023-05-07T01:03:22;101155.69;;;14.78;0.00
58973;BME280;44750;52.040;7.472;2023-05-07T01:08:22;101159.78;;;14.74;0.00
58973;BME280;44750;52.040;7.472;2023-05-07T01:13:24;101168.28;;;14.71;0.00
58973;BME280;44750;52.040;7.472;2023-05-07T01:18:24;101174.59;;;14.71;0.00
58973;BME280;44750;52.040;7.472;2023-05-07T01:23:25;101162.78;;;14.63;0.00
58973;BME280;44750;52.040;7.472;2023-05-07T01:28:25;101137.56;;;14.52;0.00
58973;BME280;44750;52.040;7.472;2023-05-07T01:33:25;101118.84;;;14.33;0.00
58973;BME280;44750;52.040;7.472;2023-05-07T01:38:27;101115.91;;;14.18;0.00
58973;BME280;44750;52.040;7.472;2023-05-07T01:43:31;101115.53;;;14.13;0.00
58973;BME280;44750;52.040;7.472;2023-05-07T01:48:33;101126.78;;;14.18;0.00
58973;BME280;44750;52.040;7.472;2023-05-07T01:53:37;101115.69;;;14.03;0.00
58973;BME280;44750;52.040;7.472;2023-05-07T01:58:38;101112.78;;;13.96;0.00
58973;BME280;44750;52.040;7.472;2023-05-07T02:03:38;101124.50;;;13.88;0.00
58973;BME280;44750;52.040;7.472;2023-05-07T02:08:38;101139.47;;;13.93;0.00
58973;BME280;44750;52.040;7.472;2023-05-07T02:13:39;101132.63;;;13.80;0.00
58973;BME280;44750;52.040;7.472;2023-05-07T02:18:39;101136.72;;;13.76;0.00
58973;BME280;44750;52.040;7.472;2023-05-07T02:23:39;101141.78;;;13.71;0.00
58973;BME280;44750;52.040;7.472;2023-05-07T02:28:39;101143.09;;;13.59;0.00
58973;BME280;44750;52.040;7.472;2023-05-07T02:33:40;101156.00;;;13.57;0.00
58973;BME280;44750;52.040;7.472;2023-05-07T02:38:40;101167.19;;;13.53;0.00
58973;BME280;44750;52.040;7.472;2023-05-07T02:43:40;101149.47;;;13.41;0.00
58973;BME280;44750;52.040;7.472;2023-05-07T02:48:40;101170.22;;;13.42;0.00
58973;BME280;44750;52.040;7.472;2023-05-07T02:53:41;101181.72;;;13.36;0.00
58973;BME280;44750;52.040;7.472;2023-05-07T02:58:41;101164.25;;;13.20;0.00
58973;BME280;44750;52.040;7.472;2023-05-07T03:03:41;101163.63;;;13.09;0.00
58973;BME280;44750;52.040;7.472;2023-05-07T03:08:43;101193.06;;;13.13;0.00
58973;BME280;44750;52.040;7.472;2023-05-07T03:13:44;101211.22;;;13.13;0.00
58973;BME280;44750;52.040;7.472;2023-05-07T03:18:44;101218.88;;;13.09;0.00
58973;BME280;44750;52.040;7.472;2023-05-07T03:23:44;101229.75;;;13.09;0.00
58973;BME280;44750;52.040;7.472;2023-05-07T03:28:44;101232.41;;;13.01;0.00
58973;BME280;44750;52.040;7.472;2023-05-07T03:33:52;101236.78;;;13.02;0.00
58973;BME280;44750;52.040;7.472;2023-05-07T03:38:53;101233.00;;;12.95;0.00
58973;BME280;44750;52.040;7.472;2023-05-07T03:43:53;101226.50;;;12.87;0.00
58973;BME280;44750;52.040;7.472;2023-05-07T03:48:53;101239.94;;;12.89;0.00
58973;BME280;44750;52.040;7.472;2023-05-07T03:53:54;101261.91;;;12.96;0.00
58973;BME280;44750;52.040;7.472;2023-05-07T03:58:54;101265.38;;;12.88;0.00
58973;BME280;44750;52.040;7.472;2023-05-07T04:03:54;101267.72;;;12.83;0.00
58973;BME280;44750;52.040;7.472;2023-05-07T04:08:54;101285.41;;;12.87;0.00
58973;BME280;44750;52.040;7.472;2023-05-07T04:13:54;101289.75;;;12.80;0.00
58973;BME280;44750;52.040;7.472;2023-05-07T04:18:55;101286.16;;;12.79;0.00
58973;BME280;44750;52.040;7.472;2023-05-07T04:23:55;101291.44;;;12.81;0.00
58973;BME280;44750;52.040;7.472;2023-05-07T04:28:56;101285.47;;;12.77;0.00
58973;BME280;44750;52.040;7.472;2023-05-07T04:33:56;101264.69;;;12.68;0.00
58973;BME280;44750;52.040;7.472;2023-05-07T04:38:56;101275.53;;;12.68;0.00
58973;BME280;44750;52.040;7.472;2023-05-07T04:43:56;101291.06;;;12.76;0.00
58973;BME280;44750;52.040;7.472;2023-05-07T04:48:57;101301.47;;;12.80;0.00
58973;BME280;44750;52.040;7.472;2023-05-07T04:53:57;101308.69;;;12.90;0.00
58973;BME280;44750;52.040;7.472;2023-05-07T04:58:57;101305.66;;;12.93;0.00
58973;BME280;44750;52.040;7.472;2023-05-07T05:03:57;101314.97;;;12.90;0.00
58973;BME280;44750;52.040;7.472;2023-05-07T05:08:58;101325.09;;;12.98;0.00
58973;BME280;44750;52.040;7.472;2023-05-07T05:13:59;101334.75;;;13.10;0.00
58973;BME280;44750;52.040;7.472;2023-05-07T05:19:01;101310.88;;;13.04;0.00
58973;BME280;44750;52.040;7.472;2023-05-07T05:24:02;101337.94;;;13.24;0.00
58973;BME280;44750;52.040;7.472;2023-05-07T05:29:02;101314.84;;;13.28;0.00
58973;BME280;44750;52.040;7.472;2023-05-07T05:34:03;101336.38;;;13.57;0.00
58973;BME280;44750;52.040;7.472;2023-05-07T05:39:03;101277.16;;;13.51;0.00
58973;BME280;44750;52.040;7.472;2023-05-07T05:44:04;101281.50;;;13.62;0.00
58973;BME280;44750;52.040;7.472;2023-05-07T05:49:04;101278.19;;;13.76;0.00
58973;BME280;44750;52.040;7.472;2023-05-07T05:54:04;101254.44;;;13.86;0.00
58973;BME280;44750;52.040;7.472;2023-05-07T05:59:05;101214.63;;;13.85;0.00
58973;BME280;44750;52.040;7.472;2023-05-07T06:04:05;101157.56;;;13.67;0.00
58973;BME280;44750;52.040;7.472;2023-05-07T06:09:05;101156.78;;;13.83;0.00
58973;BME280;44750;52.040;7.472;2023-05-07T06:14:05;101135.56;;;13.87;0.00
58973;BME280;44750;52.040;7.472;2023-05-07T06:19:06;101116.88;;;13.92;0.00
58973;BME280;44750;52.040;7.472;2023-05-07T06:24:06;101101.06;;;13.96;0.00
58973;BME280;44750;52.040;7.472;2023-05-07T06:29:07;101090.56;;;14.09;0.00
58973;BME280;44750;52.040;7.472;2023-05-07T06:34:07;101063.69;;;14.14;0.00
58973;BME280;44750;52.040;7.472;2023-05-07T06:39:07;101043.59;;;14.15;0.00
58973;BME280;44750;52.040;7.472;2023-05-07T06:44:08;101050.94;;;14.40;0.00
58973;BME280;44750;52.040;7.472;2023-05-07T06:49:08;101020.44;;;14.44;0.00
58973;BME280;44750;52.040;7.472;2023-05-07T06:54:08;101004.78;;;14.63;0.00
58973;BME280;44750;52.040;7.472;2023-05-07T06:59:08;101016.28;;;15.14;0.00
58973;BME280;44750;52.040;7.472;2023-05-07T07:04:09;100966.44;;;15.29;0.00
58973;BME280;44750;52.040;7.472;2023-05-07T07:09:09;100942.00;;;15.67;0.00
58973;BME280;44750;52.040;7.472;2023-05-07T07:14:09;100907.94;;;15.86;0.00
58973;BME280;44750;52.040;7.472;2023-05-07T07:19:09;100819.78;;;15.77;0.00
58973;BME280;44750;52.040;7.472;2023-05-07T07:24:10;100774.44;;;15.76;0.00
58973;BME280;44750;52.040;7.472;2023-05-07T07:29:10;100746.81;;;15.94;0.00
58973;BME280;44750;52.040;7.472;2023-05-07T07:34:10;100700.66;;;15.84;0.00
58973;BME280;44750;52.040;7.472;2023-05-07T07:39:10;100654.44;;;15.68;4.78
58973;BME280;44750;52.040;7.472;2023-05-07T07:44:10;100642.13;;;15.87;5.70
58973;BME280;44750;52.040;7.472;2023-05-07T07:49:11;100624.41;;;16.13;9.54
58973;BME280;44750;52.040;7.472;2023-05-07T07:54:12;100587.78;;;16.07;15.30
58973;BME280;44750;52.040;7.472;2023-05-07T07:59:12;100608.06;;;16.34;15.25
58973;BME280;44750;52.040;7.472;2023-05-07T08:04:14;100573.44;;;16.42;19.51
58973;BME280;44750;52.040;7.472;2023-05-07T08:09:14;100542.69;;;16.33;25.07
58973;BME280;44750;52.040;7.472;2023-05-07T08:14:14;100531.63;;;16.41;27.56
58973;BME280;44750;52.040;7.472;2023-05-07T08:19:14;100548.09;;;16.76;31.47
58973;BME280;44750;52.040;7.472;2023-05-07T08:24:15;100484.09;;;16.64;42.46
58973;BME280;44750;52.040;7.472;2023-05-07T08:29:15;100468.75;;;16.91;46.82
58973;BME280;44750;52.040;7.472;2023-05-07T08:34:15;100421.53;;;16.76;55.37
58973;BME280;44750;52.040;7.472;2023-05-07T08:39:15;100411.56;;;16.96;58.39
58973;BME280;44750;52.040;7.472;2023-05-07T08:44:16;100412.31;;;17.18;60.65
58973;BME280;44750;52.040;7.472;2023-05-07T08:49:16;100356.28;;;16.94;67.14
58973;BME280;44750;52.040;7.472;2023-05-07T08:54:17;100349.38;;;17.05;70.31
58973;BME280;44750;52.040;7.472;2023-05-07T08:59:18;100365.81;;;17.18;70.61
58973;BME280;44750;52.040;7.472;2023-05-07T09:04:18;100338.94;;;17.29;75.05
58973;BME280;44750;52.040;7.472;2023-05-07T09:09:18;100318.34;;;17.53;81.56
58973;BME280;44750;52.040;7.472;2023-05-07T09:14:21;100286.34;;;17.53;86.51
58973;BME280;44750;52.040;7.472;2023-05-07T09:19:25;100305.28;;;17.62;86.49
58973;BME280;44750;52.040;7.472;2023-05-07T09:24:26;100294.56;;;18.00;89.16
58973;BME280;44750;52.040;7.472;2023-05-07T09:29:27;100261.47;;;18.02;93.30
58973;BME280;44750;52.040;7.472;2023-05-07T09:34:28;100225.88;;;17.88;94.52
58973;BME280;44750;52.040;7.472;2023-05-07T09:39:42;100273.41;;;18.41;93.16
58973;BME280;44750;52.040;7.472;2023-05-07T09:44:46;100273.03;;;18.90;100.00
58973;BME280;44750;52.040;7.472;2023-05-07T09:49:47;100223.78;;;18.63;100.00
58973;BME280;44750;52.040;7.472;2023-05-07T09:54:48;100227.22;;;18.97;100.00
58973;BME280;44750;52.040;7.472;2023-05-07T09:59:51;100226.41;;;19.21;100.00
58973;BME280;44750;52.040;7.472;2023-05-07T10:04:54;100219.53;;;19.37;100.00
58973;BME280;44750;52.040;7.472;2023-05-07T10:09:55;100229.69;;;19.87;100.00
58973;BME280;44750;52.040;7.472;2023-05-07T10:14:57;100199.94;;;20.03;100.00
58973;BME280;44750;52.040;7.472;2023-05-07T10:19:58;100180.69;;;20.03;100.00
58973;BME280;44750;52.040;7.472;2023-05-07T10:24:59;100133.06;;;19.72;100.00
58973;BME280;44750;52.040;7.472;2023-05-07T10:30:23;100141.91;;;19.74;100.00
58973;BME280;44750;52.040;7.472;2023-05-07T10:35:29;100151.94;;;20.05;100.00
58973;BME280;44750;52.040;7.472;2023-05-07T10:40:31;100105.59;;;19.53;100.00
58973;BME280;44750;52.040;7.472;2023-05-07T10:45:32;100105.53;;;19.79;100.00
58973;BME280;44750;52.040;7.472;2023-05-07T10:50:32;100087.66;;;19.69;100.00
58973;BME280;44750;52.040;7.472;2023-05-07T10:55:33;100074.34;;;19.73;100.00
58973;BME280;44750;52.040;7.472;2023-05-07T11:05:33;100074.69;;;19.83;100.00
58973;BME280;44750;52.040;7.472;2023-05-07T11:10:54;100055.50;;;19.77;100.00
58973;BME280;44750;52.040;7.472;2023-05-07T11:15:55;100113.09;;;19.65;100.00
58973;BME280;44750;52.040;7.472;2023-05-07T11:21:01;100118.94;;;20.24;100.00
58973;BME280;44750;52.040;7.472;2023-05-07T11:31:03;100059.19;;;20.62;100.00
58973;BME280;44750;52.040;7.472;2023-05-07T11:36:04;100017.59;;;20.58;100.00
58973;BME280;44750;52.040;7.472;2023-05-07T11:41:05;100021.06;;;20.65;100.00
58973;BME280;44750;52.040;7.472;2023-05-07T11:46:08;99951.38;;;20.60;100.00
58973;BME280;44750;52.040;7.472;2023-05-07T11:51:08;99922.38;;;20.21;100.00
58973;BME280;44750;52.040;7.472;2023-05-07T11:56:10;99905.91;;;20.21;100.00
58973;BME280;44750;52.040;7.472;2023-05-07T12:01:11;99951.25;;;20.54;100.00
58973;BME280;44750;52.040;7.472;2023-05-07T12:06:14;99928.31;;;20.73;100.00
58973;BME280;44750;52.040;7.472;2023-05-07T12:11:25;99956.41;;;20.98;100.00
58973;BME280;44750;52.040;7.472;2023-05-07T12:16:26;99979.75;;;21.72;100.00
58973;BME280;44750;52.040;7.472;2023-05-07T12:21:27;99953.66;;;21.92;100.00
58973;BME280;44750;52.040;7.472;2023-05-07T12:26:27;99921.44;;;21.92;100.00
58973;BME280;44750;52.040;7.472;2023-05-07T12:31:27;99909.28;;;21.76;100.00
58973;BME280;44750;52.040;7.472;2023-05-07T12:36:36;99892.56;;;21.66;100.00
58973;BME280;44750;52.040;7.472;2023-05-07T12:41:56;99916.16;;;22.36;100.00
58973;BME280;44750;52.040;7.472;2023-05-07T12:46:58;99932.44;;;22.72;100.00
58973;BME280;44750;52.040;7.472;2023-05-07T12:51:58;99828.97;;;22.52;100.00
58973;BME280;44750;52.040;7.472;2023-05-07T12:57:06;99800.13;;;22.60;100.00
58973;BME280;44750;52.040;7.472;2023-05-07T13:02:08;99759.50;;;22.16;100.00
58973;BME280;44750;52.040;7.472;2023-05-07T13:07:08;99804.31;;;22.63;100.00
58973;BME280;44750;52.040;7.472;2023-05-07T13:12:09;99779.75;;;22.83;100.00
58973;BME280;44750;52.040;7.472;2023-05-07T13:17:09;99660.63;;;22.20;100.00
58973;BME280;44750;52.040;7.472;2023-05-07T13:22:09;99758.94;;;22.53;100.00
58973;BME280;44750;52.040;7.472;2023-05-07T13:27:09;99638.00;;;22.40;100.00
58973;BME280;44750;52.040;7.472;2023-05-07T13:32:10;99655.81;;;22.54;100.00
58973;BME280;44750;52.040;7.472;2023-05-07T13:37:10;99719.31;;;22.82;100.00
58973;BME280;44750;52.040;7.472;2023-05-07T13:42:10;99637.47;;;22.65;100.00
58973;BME280;44750;52.040;7.472;2023-05-07T13:47:10;99510.75;;;22.53;100.00
58973;BME280;44750;52.040;7.472;2023-05-07T13:52:11;99597.25;;;22.42;100.00
58973;BME280;44750;52.040;7.472;2023-05-07T13:57:11;99642.78;;;22.05;100.00
58973;BME280;44750;52.040;7.472;2023-05-07T14:02:11;99606.53;;;22.36;100.00
58973;BME280;44750;52.040;7.472;2023-05-07T14:07:11;99524.16;;;22.17;100.00
58973;BME280;44750;52.040;7.472;2023-05-07T14:12:11;99564.94;;;22.15;100.00
58973;BME280;44750;52.040;7.472;2023-05-07T14:17:12;99556.28;;;22.07;100.00
58973;BME280;44750;52.040;7.472;2023-05-07T14:22:13;99618.09;;;21.94;100.00
58973;BME280;44750;52.040;7.472;2023-05-07T14:27:14;99683.13;;;22.12;100.00
58973;BME280;44750;52.040;7.472;2023-05-07T14:32:14;99677.88;;;22.10;100.00
58973;BME280;44750;52.040;7.472;2023-05-07T14:37:14;99691.72;;;22.15;100.00
58973;BME280;44750;52.040;7.472;2023-05-07T14:42:14;99668.19;;;22.08;100.00
58973;BME280;44750;52.040;7.472;2023-05-07T14:47:15;99641.97;;;22.05;100.00
58973;BME280;44750;52.040;7.472;2023-05-07T14:52:15;99715.09;;;22.13;100.00
58973;BME280;44750;52.040;7.472;2023-05-07T14:57:15;99692.13;;;22.07;100.00
58973;BME280;44750;52.040;7.472;2023-05-07T15:02:15;99698.97;;;21.82;100.00
58973;BME280;44750;52.040;7.472;2023-05-07T15:07:16;99850.03;;;21.57;100.00
58973;BME280;44750;52.040;7.472;2023-05-07T15:12:16;99939.13;;;21.27;100.00
58973;BME280;44750;52.040;7.472;2023-05-07T15:17:16;100001.75;;;20.96;100.00
58973;BME280;44750;52.040;7.472;2023-05-07T15:22:16;100064.63;;;20.80;100.00
58973;BME280;44750;52.040;7.472;2023-05-07T15:27:17;100151.59;;;20.81;100.00
58973;BME280;44750;52.040;7.472;2023-05-07T15:32:17;100148.59;;;20.83;100.00
58973;BME280;44750;52.040;7.472;2023-05-07T15:37:17;100133.53;;;20.55;100.00
58973;BME280;44750;52.040;7.472;2023-05-07T15:42:17;100119.53;;;20.45;100.00
58973;BME280;44750;52.040;7.472;2023-05-07T15:47:18;100118.56;;;20.20;100.00
58973;BME280;44750;52.040;7.472;2023-05-07T15:52:18;100154.00;;;19.92;100.00
58973;BME280;44750;52.040;7.472;2023-05-07T15:57:19;100220.38;;;19.88;100.00
58973;BME280;44750;52.040;7.472;2023-05-07T16:02:19;100275.06;;;20.15;100.00
58973;BME280;44750;52.040;7.472;2023-05-07T16:07:20;100254.19;;;19.89;100.00
58973;BME280;44750;52.040;7.472;2023-05-07T16:12:20;100268.66;;;19.71;100.00
58973;BME280;44750;52.040;7.472;2023-05-07T16:17:20;100329.34;;;19.63;100.00
58973;BME280;44750;52.040;7.472;2023-05-07T16:22:20;100351.03;;;19.71;100.00
58973;BME280;44750;52.040;7.472;2023-05-07T16:27:21;100338.41;;;19.70;100.00
58973;BME280;44750;52.040;7.472;2023-05-07T16:32:21;100342.97;;;19.76;100.00
58973;BME280;44750;52.040;7.472;2023-05-07T16:37:21;100329.72;;;19.73;100.00
58973;BME280;44750;52.040;7.472;2023-05-07T16:42:21;100319.34;;;19.43;100.00
58973;BME280;44750;52.040;7.472;2023-05-07T16:47:21;100349.66;;;19.23;100.00
58973;BME280;44750;52.040;7.472;2023-05-07T16:52:22;100356.91;;;19.11;100.00
58973;BME280;44750;52.040;7.472;2023-05-07T16:57:23;100349.75;;;19.03;100.00
58973;BME280;44750;52.040;7.472;2023-05-07T17:02:23;100366.22;;;19.03;100.00
58973;BME280;44750;52.040;7.472;2023-05-07T17:07:25;100373.00;;;18.94;100.00
58973;BME280;44750;52.040;7.472;2023-05-07T17:12:25;100394.94;;;18.94;100.00
58973;BME280;44750;52.040;7.472;2023-05-07T17:17:25;100400.88;;;18.91;100.00
58973;BME280;44750;52.040;7.472;2023-05-07T17:22:26;100403.59;;;18.84;100.00
58973;BME280;44750;52.040;7.472;2023-05-07T17:27:26;100365.28;;;18.64;100.00
58973;BME280;44750;52.040;7.472;2023-05-07T17:32:26;100388.06;;;18.51;100.00
58973;BME280;44750;52.040;7.472;2023-05-07T17:37:26;100387.66;;;18.41;100.00
58973;BME280;44750;52.040;7.472;2023-05-07T17:42:28;100395.03;;;18.33;100.00
58973;BME280;44750;52.040;7.472;2023-05-07T17:47:30;100402.00;;;18.23;100.00
58973;BME280;44750;52.040;7.472;2023-05-07T17:52:31;100424.13;;;18.28;100.00
58973;BME280;44750;52.040;7.472;2023-05-07T17:57:31;100381.75;;;17.83;100.00
58973;BME280;44750;52.040;7.472;2023-05-07T18:02:31;100428.06;;;17.78;100.00
58973;BME280;44750;52.040;7.472;2023-05-07T18:07:32;100454.59;;;17.84;100.00
58973;BME280;44750;52.040;7.472;2023-05-07T18:12:32;100479.47;;;17.83;100.00
58973;BME280;44750;52.040;7.472;2023-05-07T18:17:32;100459.19;;;17.64;100.00
58973;BME280;44750;52.040;7.472;2023-05-07T18:22:33;100436.56;;;17.35;100.00
58973;BME280;44750;52.040;7.472;2023-05-07T18:27:34;100482.53;;;17.53;100.00
58973;BME280;44750;52.040;7.472;2023-05-07T18:32:34;100470.44;;;17.34;100.00
58973;BME280;44750;52.040;7.472;2023-05-07T18:37:34;100489.16;;;17.24;100.00
58973;BME280;44750;52.040;7.472;2023-05-07T18:42:35;100480.88;;;17.10;100.00
58973;BME280;44750;52.040;7.472;2023-05-07T18:47:35;100519.44;;;17.22;100.00
58973;BME280;44750;52.040;7.472;2023-05-07T18:52:38;100493.00;;;17.01;100.00
58973;BME280;44750;52.040;7.472;2023-05-07T18:57:38;100531.84;;;17.25;100.00
58973;BME280;44750;52.040;7.472;2023-05-07T19:02:39;100503.34;;;17.05;100.00
58973;BME280;44750;52.040;7.472;2023-05-07T19:07:39;100504.09;;;16.93;100.00
58973;BME280;44750;52.040;7.472;2023-05-07T19:12:42;100521.66;;;17.05;100.00
58973;BME280;44750;52.040;7.472;2023-05-07T19:17:42;100549.16;;;16.97;100.00
58973;BME280;44750;52.040;7.472;2023-05-07T19:22:43;100559.69;;;17.00;100.00
58973;BME280;44750;52.040;7.472;2023-05-07T19:27:43;100526.69;;;16.80;100.00
58973;BME280;44750;52.040;7.472;2023-05-07T19:32:43;100535.28;;;16.77;100.00
58973;BME280;44750;52.040;7.472;2023-05-07T19:37:43;100515.50;;;16.46;100.00
58973;BME280;44750;52.040;7.472;2023-05-07T19:42:44;100549.63;;;16.57;100.00
58973;BME280;44750;52.040;7.472;2023-05-07T19:47:46;100578.72;;;16.65;100.00
58973;BME280;44750;52.040;7.472;2023-05-07T19:52:47;100585.84;;;16.66;100.00
58973;BME280;44750;52.040;7.472;2023-05-07T19:57:47;100590.03;;;16.62;100.00
58973;BME280;44750;52.040;7.472;2023-05-07T20:02:48;100538.00;;;16.27;100.00
58973;BME280;44750;52.040;7.472;2023-05-07T20:07:48;100589.91;;;16.48;100.00
58973;BME280;44750;52.040;7.472;2023-05-07T20:12:48;100557.38;;;16.32;100.00
58973;BME280;44750;52.040;7.472;2023-05-07T20:17:48;100585.28;;;16.49;100.00
58973;BME280;44750;52.040;7.472;2023-05-07T20:22:49;100569.13;;;16.32;100.00
58973;BME280;44750;52.040;7.472;2023-05-07T20:27:49;100595.09;;;16.43;100.00
58973;BME280;44750;52.040;7.472;2023-05-07T20:32:49;100587.28;;;16.40;100.00
58973;BME280;44750;52.040;7.472;2023-05-07T20:37:49;100579.94;;;16.19;100.00
58973;BME280;44750;52.040;7.472;2023-05-07T20:42:50;100577.00;;;16.20;100.00
58973;BME280;44750;52.040;7.472;2023-05-07T20:47:50;100565.16;;;16.13;100.00
58973;BME280;44750;52.040;7.472;2023-05-07T20:52:50;100540.19;;;15.95;100.00
58973;BME280;44750;52.040;7.472;2023-05-07T20:57:50;100539.00;;;15.82;100.00
58973;BME280;44750;52.040;7.472;2023-05-07T21:02:50;100509.72;;;15.76;100.00
58973;BME280;44750;52.040;7.472;2023-05-07T21:07:51;100493.72;;;15.73;100.00
58973;BME280;44750;52.040;7.472;2023-05-07T21:12:51;100491.47;;;15.62;98.92
58973;BME280;44750;52.040;7.472;2023-05-07T21:17:51;100472.03;;;15.50;96.23
58973;BME280;44750;52.040;7.472;2023-05-07T21:22:51;100480.63;;;15.32;94.07
58973;BME280;44750;52.040;7.472;2023-05-07T21:27:52;100487.69;;;15.41;92.14
58973;BME280;44750;52.040;7.472;2023-05-07T21:32:52;100486.84;;;15.26;91.83
58973;BME280;44750;52.040;7.472;2023-05-07T21:37:52;100493.25;;;15.03;89.68
58973;BME280;44750;52.040;7.472;2023-05-07T21:42:53;100517.03;;;15.09;85.85
58973;BME280;44750;52.040;7.472;2023-05-07T21:47:53;100500.94;;;14.99;85.33
58973;BME280;44750;52.040;7.472;2023-05-07T21:52:53;100495.78;;;15.04;85.32
58973;BME280;44750;52.040;7.472;2023-05-07T21:57:54;100508.66;;;14.96;83.53
58973;BME280;44750;52.040;7.472;2023-05-07T22:02:54;100506.88;;;14.88;82.94
58973;BME280;44750;52.040;7.472;2023-05-07T22:07:54;100505.38;;;14.85;81.30
58973;BME280;44750;52.040;7.472;2023-05-07T22:12:54;100489.00;;;14.70;80.03
58973;BME280;44750;52.040;7.472;2023-05-07T22:17:55;100514.41;;;14.63;76.18
58973;BME280;44750;52.040;7.472;2023-05-07T22:22:55;100511.19;;;14.59;71.76
58973;BME280;44750;52.040;7.472;2023-05-07T22:27:55;100503.56;;;14.40;69.49
58973;BME280;44750;52.040;7.472;2023-05-07T22:32:56;100527.13;;;14.47;66.47
58973;BME280;44750;52.040;7.472;2023-05-07T22:37:56;100521.94;;;14.37;64.06
58973;BME280;44750;52.040;7.472;2023-05-07T22:42:56;100513.34;;;14.26;62.14
58973;BME280;44750;52.040;7.472;2023-05-07T22:47:56;100530.56;;;14.26;57.31
58973;BME280;44750;52.040;7.472;2023-05-07T22:52:56;100533.09;;;14.28;56.39
58973;BME280;44750;52.040;7.472;2023-05-07T22:57:57;100529.88;;;14.24;54.51
58973;BME280;44750;52.040;7.472;2023-05-07T23:02:57;100523.34;;;14.10;52.25
58973;BME280;44750;52.040;7.472;2023-05-07T23:07:57;100530.00;;;14.08;50.31
58973;BME280;44750;52.040;7.472;2023-05-07T23:12:58;100546.09;;;14.17;49.63
58973;BME280;44750;52.040;7.472;2023-05-07T23:17:58;100539.69;;;14.10;49.50
58973;BME280;44750;52.040;7.472;2023-05-07T23:22:58;100548.19;;;14.07;49.02
58973;BME280;44750;52.040;7.472;2023-05-07T23:27:58;100545.16;;;14.02;49.87
58973;BME280;44750;52.040;7.472;2023-05-07T23:32:58;100550.97;;;13.99;51.85
58973;BME280;44750;52.040;7.472;2023-05-07T23:37:59;100570.34;;;14.04;52.13
58973;BME280;44750;52.040;7.472;2023-05-07T23:42:59;100528.31;;;13.75;59.57
58973;BME280;44750;52.040;7.472;2023-05-07T23:47:59;100515.09;;;13.72;66.84
58973;BME280;44750;52.040;7.472;2023-05-07T23:52:59;100526.22;;;13.85;73.36
58973;BME280;44750;52.040;7.472;2023-05-07T23:58:00;100519.44;;;13.81;79.44
